sensor_id;sensor_type;location;lat;lon;timestamp;P1;durP1;ratioP1;P2;durP2;ratioP2
41739;SDS011;27422;52.444;13.300;2022-10-16T00:00:37;2.53;;;1.13;;
41739;SDS011;27422;52.444;13.300;2022-10-16T00:03:04;2.50;;;1.10;;
41739;SDS011;27422;52.444;13.300;2022-10-16T00:05:29;2.20;;;1.08;;
41739;SDS011;27422;52.444;13.300;2022-10-16T00:07:54;2.72;;;1.30;;
41739;SDS011;27422;52.444;13.300;2022-10-16T00:10:20;2.70;;;1.17;;
41739;SDS011;27422;52.444;13.300;2022-10-16T00:12:45;2.22;;;1.10;;
41739;SDS011;27422;52.444;13.300;2022-10-16T00:15:11;2.08;;;1.00;;
41739;SDS011;27422;52.444;13.300;2022-10-16T00:17:36;2.20;;;1.00;;
41739;SDS011;27422;52.444;13.300;2022-10-16T00:20:01;2.08;;;0.93;;
41739;SDS011;27422;52.444;13.300;2022-10-16T00:22:27;2.05;;;1.10;;
41739;SDS011;27422;52.444;13.300;2022-10-16T00:24:53;3.28;;;1.10;;
41739;SDS011;27422;52.444;13.300;2022-10-16T00:27:18;2.42;;;1.23;;
41739;SDS011;27422;52.444;13.300;2022-10-16T00:29:43;2.42;;;1.30;;
41739;SDS011;27422;52.444;13.300;2022-10-16T00:32:08;2.08;;;1.00;;
41739;SDS011;27422;52.444;13.300;2022-10-16T00:34:34;1.92;;;0.93;;
41739;SDS011;27422;52.444;13.300;2022-10-16T00:37:00;2.58;;;1.20;;
41739;SDS011;27422;52.444;13.300;2022-10-16T00:39:25;2.28;;;1.10;;
41739;SDS011;27422;52.444;13.300;2022-10-16T00:41:50;2.53;;;1.10;;
41739;SDS011;27422;52.444;13.300;2022-10-16T00:47:28;1.70;;;0.90;;
41739;SDS011;27422;52.444;13.300;2022-10-16T00:49:58;1.88;;;0.95;;
41739;SDS011;27422;52.444;13.300;2022-10-16T00:52:26;2.88;;;1.20;;
41739;SDS011;27422;52.444;13.300;2022-10-16T00:54:51;2.13;;;1.08;;
41739;SDS011;27422;52.444;13.300;2022-10-16T00:57:17;2.38;;;1.10;;
41739;SDS011;27422;52.444;13.300;2022-10-16T00:59:43;3.03;;;1.20;;
41739;SDS011;27422;52.444;13.300;2022-10-16T01:02:10;2.08;;;1.02;;
41739;SDS011;27422;52.444;13.300;2022-10-16T01:04:38;2.45;;;1.10;;
41739;SDS011;27422;52.444;13.300;2022-10-16T01:07:09;2.13;;;1.10;;
41739;SDS011;27422;52.444;13.300;2022-10-16T01:15:17;3.28;;;1.20;;
41739;SDS011;27422;52.444;13.300;2022-10-16T01:21:26;3.08;;;1.30;;
41739;SDS011;27422;52.444;13.300;2022-10-16T01:29:34;2.30;;;1.20;;
41739;SDS011;27422;52.444;13.300;2022-10-16T01:32:10;2.58;;;1.27;;
41739;SDS011;27422;52.444;13.300;2022-10-16T01:34:42;2.53;;;1.25;;
41739;SDS011;27422;52.444;13.300;2022-10-16T01:37:15;1.88;;;1.02;;
41739;SDS011;27422;52.444;13.300;2022-10-16T01:39:48;3.08;;;1.30;;
41739;SDS011;27422;52.444;13.300;2022-10-16T01:42:17;2.53;;;1.10;;
41739;SDS011;27422;52.444;13.300;2022-10-16T01:44:45;4.15;;;1.20;;
41739;SDS011;27422;52.444;13.300;2022-10-16T01:47:12;2.47;;;1.10;;
41739;SDS011;27422;52.444;13.300;2022-10-16T01:49:38;2.55;;;1.00;;
41739;SDS011;27422;52.444;13.300;2022-10-16T01:52:09;2.08;;;1.10;;
41739;SDS011;27422;52.444;13.300;2022-10-16T01:54:36;2.65;;;1.40;;
41739;SDS011;27422;52.444;13.300;2022-10-16T01:59:31;2.28;;;1.15;;
41739;SDS011;27422;52.444;13.300;2022-10-16T02:02:10;2.30;;;1.20;;
41739;SDS011;27422;52.444;13.300;2022-10-16T02:04:44;2.00;;;1.00;;
41739;SDS011;27422;52.444;13.300;2022-10-16T02:07:11;2.50;;;1.10;;
41739;SDS011;27422;52.444;13.300;2022-10-16T02:09:37;2.20;;;1.00;;
41739;SDS011;27422;52.444;13.300;2022-10-16T02:12:08;2.53;;;1.20;;
41739;SDS011;27422;52.444;13.300;2022-10-16T02:14:38;2.60;;;1.30;;
41739;SDS011;27422;52.444;13.300;2022-10-16T02:17:14;2.70;;;1.30;;
41739;SDS011;27422;52.444;13.300;2022-10-16T02:19:41;2.70;;;1.38;;
41739;SDS011;27422;52.444;13.300;2022-10-16T02:22:08;3.03;;;1.33;;
41739;SDS011;27422;52.444;13.300;2022-10-16T02:24:40;2.45;;;1.13;;
41739;SDS011;27422;52.444;13.300;2022-10-16T02:27:24;3.20;;;1.40;;
41739;SDS011;27422;52.444;13.300;2022-10-16T02:30:19;2.30;;;1.10;;
41739;SDS011;27422;52.444;13.300;2022-10-16T02:32:47;3.03;;;1.00;;
41739;SDS011;27422;52.444;13.300;2022-10-16T02:35:14;2.87;;;1.20;;
41739;SDS011;27422;52.444;13.300;2022-10-16T02:37:41;2.33;;;1.00;;
41739;SDS011;27422;52.444;13.300;2022-10-16T02:40:07;2.65;;;1.30;;
41739;SDS011;27422;52.444;13.300;2022-10-16T02:42:37;2.30;;;1.10;;
41739;SDS011;27422;52.444;13.300;2022-10-16T02:45:07;2.58;;;1.13;;
41739;SDS011;27422;52.444;13.300;2022-10-16T02:47:34;2.70;;;1.35;;
41739;SDS011;27422;52.444;13.300;2022-10-16T02:50:00;2.28;;;1.08;;
41739;SDS011;27422;52.444;13.300;2022-10-16T02:52:25;2.60;;;1.10;;
41739;SDS011;27422;52.444;13.300;2022-10-16T02:54:50;3.83;;;1.52;;
41739;SDS011;27422;52.444;13.300;2022-10-16T02:57:16;2.40;;;1.10;;
41739;SDS011;27422;52.444;13.300;2022-10-16T02:59:42;2.15;;;1.10;;
41739;SDS011;27422;52.444;13.300;2022-10-16T03:02:08;2.30;;;0.95;;
41739;SDS011;27422;52.444;13.300;2022-10-16T03:04:33;2.58;;;1.30;;
41739;SDS011;27422;52.444;13.300;2022-10-16T03:06:59;2.17;;;1.00;;
41739;SDS011;27422;52.444;13.300;2022-10-16T03:09:24;2.30;;;1.20;;
41739;SDS011;27422;52.444;13.300;2022-10-16T03:11:50;3.10;;;1.20;;
41739;SDS011;27422;52.444;13.300;2022-10-16T03:14:18;2.22;;;1.20;;
41739;SDS011;27422;52.444;13.300;2022-10-16T03:16:43;3.13;;;1.08;;
41739;SDS011;27422;52.444;13.300;2022-10-16T03:19:08;2.20;;;1.00;;
41739;SDS011;27422;52.444;13.300;2022-10-16T03:21:33;2.28;;;1.10;;
41739;SDS011;27422;52.444;13.300;2022-10-16T03:23:59;2.42;;;1.10;;
41739;SDS011;27422;52.444;13.300;2022-10-16T03:26:24;2.90;;;1.00;;
41739;SDS011;27422;52.444;13.300;2022-10-16T03:28:49;3.40;;;1.08;;
41739;SDS011;27422;52.444;13.300;2022-10-16T03:31:15;2.72;;;1.35;;
41739;SDS011;27422;52.444;13.300;2022-10-16T03:33:40;2.40;;;1.10;;
41739;SDS011;27422;52.444;13.300;2022-10-16T03:36:05;2.40;;;1.13;;
41739;SDS011;27422;52.444;13.300;2022-10-16T03:38:31;2.10;;;1.02;;
41739;SDS011;27422;52.444;13.300;2022-10-16T03:40:57;2.63;;;1.25;;
41739;SDS011;27422;52.444;13.300;2022-10-16T03:43:22;1.92;;;1.00;;
41739;SDS011;27422;52.444;13.300;2022-10-16T03:45:49;2.38;;;1.23;;
41739;SDS011;27422;52.444;13.300;2022-10-16T03:48:15;2.67;;;1.30;;
41739;SDS011;27422;52.444;13.300;2022-10-16T03:50:41;2.95;;;1.20;;
41739;SDS011;27422;52.444;13.300;2022-10-16T03:53:06;2.13;;;1.10;;
41739;SDS011;27422;52.444;13.300;2022-10-16T03:55:31;2.60;;;1.35;;
41739;SDS011;27422;52.444;13.300;2022-10-16T03:57:57;2.63;;;1.20;;
41739;SDS011;27422;52.444;13.300;2022-10-16T04:00:22;2.90;;;1.20;;
41739;SDS011;27422;52.444;13.300;2022-10-16T04:02:47;3.60;;;1.15;;
41739;SDS011;27422;52.444;13.300;2022-10-16T04:05:13;2.85;;;1.10;;
41739;SDS011;27422;52.444;13.300;2022-10-16T04:07:38;2.45;;;1.30;;
41739;SDS011;27422;52.444;13.300;2022-10-16T04:10:04;2.60;;;1.00;;
41739;SDS011;27422;52.444;13.300;2022-10-16T04:12:29;2.60;;;1.30;;
41739;SDS011;27422;52.444;13.300;2022-10-16T04:14:55;3.47;;;1.33;;
41739;SDS011;27422;52.444;13.300;2022-10-16T04:17:20;3.78;;;1.52;;
41739;SDS011;27422;52.444;13.300;2022-10-16T04:19:45;2.20;;;1.20;;
41739;SDS011;27422;52.444;13.300;2022-10-16T04:22:11;2.30;;;1.08;;
41739;SDS011;27422;52.444;13.300;2022-10-16T04:24:36;3.08;;;1.30;;
41739;SDS011;27422;52.444;13.300;2022-10-16T04:27:01;4.30;;;1.20;;
41739;SDS011;27422;52.444;13.300;2022-10-16T04:29:27;2.63;;;1.23;;
41739;SDS011;27422;52.444;13.300;2022-10-16T04:31:52;2.35;;;1.30;;
41739;SDS011;27422;52.444;13.300;2022-10-16T04:34:17;2.03;;;1.00;;
41739;SDS011;27422;52.444;13.300;2022-10-16T04:36:43;2.67;;;1.30;;
41739;SDS011;27422;52.444;13.300;2022-10-16T04:39:08;2.67;;;1.30;;
41739;SDS011;27422;52.444;13.300;2022-10-16T04:41:34;2.10;;;1.08;;
41739;SDS011;27422;52.444;13.300;2022-10-16T04:43:59;2.30;;;1.20;;
41739;SDS011;27422;52.444;13.300;2022-10-16T04:46:24;2.00;;;1.10;;
41739;SDS011;27422;52.444;13.300;2022-10-16T04:48:49;2.15;;;1.20;;
41739;SDS011;27422;52.444;13.300;2022-10-16T04:51:15;3.22;;;1.70;;
41739;SDS011;27422;52.444;13.300;2022-10-16T04:53:40;2.75;;;1.20;;
41739;SDS011;27422;52.444;13.300;2022-10-16T04:56:06;2.70;;;1.40;;
41739;SDS011;27422;52.444;13.300;2022-10-16T04:58:31;1.95;;;1.00;;
41739;SDS011;27422;52.444;13.300;2022-10-16T05:00:56;2.95;;;1.20;;
41739;SDS011;27422;52.444;13.300;2022-10-16T05:03:22;2.63;;;1.40;;
41739;SDS011;27422;52.444;13.300;2022-10-16T05:05:47;2.40;;;1.20;;
41739;SDS011;27422;52.444;13.300;2022-10-16T05:08:13;2.65;;;1.30;;
41739;SDS011;27422;52.444;13.300;2022-10-16T05:10:40;2.30;;;1.30;;
41739;SDS011;27422;52.444;13.300;2022-10-16T05:13:07;3.50;;;1.33;;
41739;SDS011;27422;52.444;13.300;2022-10-16T05:15:33;2.70;;;1.20;;
41739;SDS011;27422;52.444;13.300;2022-10-16T05:17:59;2.25;;;1.05;;
41739;SDS011;27422;52.444;13.300;2022-10-16T05:20:24;2.92;;;1.27;;
41739;SDS011;27422;52.444;13.300;2022-10-16T05:22:49;3.17;;;1.33;;
41739;SDS011;27422;52.444;13.300;2022-10-16T05:25:15;3.20;;;1.67;;
41739;SDS011;27422;52.444;13.300;2022-10-16T05:27:41;4.47;;;1.85;;
41739;SDS011;27422;52.444;13.300;2022-10-16T05:30:06;3.10;;;1.85;;
41739;SDS011;27422;52.444;13.300;2022-10-16T05:32:32;3.38;;;1.92;;
41739;SDS011;27422;52.444;13.300;2022-10-16T05:34:58;3.92;;;2.00;;
41739;SDS011;27422;52.444;13.300;2022-10-16T05:37:24;3.17;;;1.90;;
41739;SDS011;27422;52.444;13.300;2022-10-16T05:39:50;2.72;;;1.50;;
41739;SDS011;27422;52.444;13.300;2022-10-16T05:42:15;4.28;;;1.67;;
41739;SDS011;27422;52.444;13.300;2022-10-16T05:44:41;3.15;;;1.50;;
41739;SDS011;27422;52.444;13.300;2022-10-16T05:47:06;3.38;;;1.95;;
41739;SDS011;27422;52.444;13.300;2022-10-16T05:49:34;3.20;;;1.75;;
41739;SDS011;27422;52.444;13.300;2022-10-16T05:52:00;2.92;;;1.60;;
41739;SDS011;27422;52.444;13.300;2022-10-16T05:54:25;2.70;;;1.70;;
41739;SDS011;27422;52.444;13.300;2022-10-16T05:56:50;3.83;;;2.00;;
41739;SDS011;27422;52.444;13.300;2022-10-16T05:59:16;3.38;;;1.95;;
41739;SDS011;27422;52.444;13.300;2022-10-16T06:01:41;3.58;;;1.63;;
41739;SDS011;27422;52.444;13.300;2022-10-16T06:04:07;3.08;;;1.50;;
41739;SDS011;27422;52.444;13.300;2022-10-16T06:06:33;3.30;;;1.80;;
41739;SDS011;27422;52.444;13.300;2022-10-16T06:08:58;3.10;;;1.70;;
41739;SDS011;27422;52.444;13.300;2022-10-16T06:11:25;3.00;;;1.60;;
41739;SDS011;27422;52.444;13.300;2022-10-16T06:13:53;6.60;;;2.10;;
41739;SDS011;27422;52.444;13.300;2022-10-16T06:16:20;3.13;;;1.60;;
41739;SDS011;27422;52.444;13.300;2022-10-16T06:18:45;2.90;;;1.60;;
41739;SDS011;27422;52.444;13.300;2022-10-16T06:21:12;3.40;;;1.80;;
41739;SDS011;27422;52.444;13.300;2022-10-16T06:23:39;2.70;;;1.40;;
41739;SDS011;27422;52.444;13.300;2022-10-16T06:26:05;3.78;;;1.83;;
41739;SDS011;27422;52.444;13.300;2022-10-16T06:28:31;4.72;;;1.90;;
41739;SDS011;27422;52.444;13.300;2022-10-16T06:31:00;3.75;;;1.92;;
41739;SDS011;27422;52.444;13.300;2022-10-16T06:33:26;2.22;;;1.30;;
41739;SDS011;27422;52.444;13.300;2022-10-16T06:35:52;3.17;;;1.60;;
41739;SDS011;27422;52.444;13.300;2022-10-16T06:38:17;3.30;;;1.60;;
41739;SDS011;27422;52.444;13.300;2022-10-16T06:40:42;2.85;;;1.50;;
41739;SDS011;27422;52.444;13.300;2022-10-16T06:43:08;3.20;;;1.50;;
41739;SDS011;27422;52.444;13.300;2022-10-16T06:45:33;2.95;;;1.60;;
41739;SDS011;27422;52.444;13.300;2022-10-16T06:47:59;2.72;;;1.40;;
41739;SDS011;27422;52.444;13.300;2022-10-16T06:50:24;3.17;;;1.38;;
41739;SDS011;27422;52.444;13.300;2022-10-16T06:52:49;2.63;;;1.40;;
41739;SDS011;27422;52.444;13.300;2022-10-16T06:55:15;2.55;;;1.40;;
41739;SDS011;27422;52.444;13.300;2022-10-16T06:57:41;2.67;;;1.40;;
41739;SDS011;27422;52.444;13.300;2022-10-16T07:00:07;2.10;;;1.08;;
41739;SDS011;27422;52.444;13.300;2022-10-16T07:02:33;2.80;;;1.50;;
41739;SDS011;27422;52.444;13.300;2022-10-16T07:04:58;3.28;;;1.50;;
41739;SDS011;27422;52.444;13.300;2022-10-16T07:07:23;2.35;;;1.13;;
41739;SDS011;27422;52.444;13.300;2022-10-16T07:09:49;2.55;;;1.30;;
41739;SDS011;27422;52.444;13.300;2022-10-16T07:12:15;2.83;;;1.33;;
41739;SDS011;27422;52.444;13.300;2022-10-16T07:14:40;2.63;;;1.20;;
41739;SDS011;27422;52.444;13.300;2022-10-16T07:17:05;5.70;;;2.65;;
41739;SDS011;27422;52.444;13.300;2022-10-16T07:19:31;4.43;;;1.98;;
41739;SDS011;27422;52.444;13.300;2022-10-16T07:21:56;4.25;;;1.13;;
41739;SDS011;27422;52.444;13.300;2022-10-16T07:24:22;2.10;;;1.08;;
41739;SDS011;27422;52.444;13.300;2022-10-16T07:26:47;2.03;;;1.20;;
41739;SDS011;27422;52.444;13.300;2022-10-16T07:29:13;2.35;;;1.00;;
41739;SDS011;27422;52.444;13.300;2022-10-16T07:31:40;2.20;;;1.00;;
41739;SDS011;27422;52.444;13.300;2022-10-16T07:34:06;4.25;;;1.13;;
41739;SDS011;27422;52.444;13.300;2022-10-16T07:36:34;2.22;;;0.90;;
41739;SDS011;27422;52.444;13.300;2022-10-16T07:39:00;2.40;;;1.00;;
41739;SDS011;27422;52.444;13.300;2022-10-16T07:41:25;2.50;;;1.00;;
41739;SDS011;27422;52.444;13.300;2022-10-16T07:43:52;2.10;;;1.05;;
41739;SDS011;27422;52.444;13.300;2022-10-16T07:46:18;2.70;;;1.38;;
41739;SDS011;27422;52.444;13.300;2022-10-16T07:48:44;2.22;;;1.13;;
41739;SDS011;27422;52.444;13.300;2022-10-16T07:51:14;3.75;;;1.00;;
41739;SDS011;27422;52.444;13.300;2022-10-16T07:53:41;2.40;;;1.00;;
41739;SDS011;27422;52.444;13.300;2022-10-16T07:56:07;1.95;;;0.95;;
41739;SDS011;27422;52.444;13.300;2022-10-16T07:58:34;1.98;;;1.00;;
41739;SDS011;27422;52.444;13.300;2022-10-16T08:01:12;2.00;;;0.90;;
41739;SDS011;27422;52.444;13.300;2022-10-16T08:03:41;2.30;;;0.90;;
41739;SDS011;27422;52.444;13.300;2022-10-16T08:06:10;1.75;;;0.85;;
41739;SDS011;27422;52.444;13.300;2022-10-16T08:08:35;2.17;;;0.90;;
41739;SDS011;27422;52.444;13.300;2022-10-16T08:11:00;1.65;;;0.80;;
41739;SDS011;27422;52.444;13.300;2022-10-16T08:15:54;3.05;;;0.90;;
41739;SDS011;27422;52.444;13.300;2022-10-16T08:18:19;3.08;;;0.90;;
41739;SDS011;27422;52.444;13.300;2022-10-16T08:20:44;2.70;;;0.70;;
41739;SDS011;27422;52.444;13.300;2022-10-16T08:23:11;3.20;;;0.90;;
41739;SDS011;27422;52.444;13.300;2022-10-16T08:25:37;2.15;;;0.65;;
41739;SDS011;27422;52.444;13.300;2022-10-16T08:28:09;1.60;;;0.80;;
41739;SDS011;27422;52.444;13.300;2022-10-16T08:30:35;2.72;;;0.90;;
41739;SDS011;27422;52.444;13.300;2022-10-16T08:33:01;1.50;;;0.70;;
41739;SDS011;27422;52.444;13.300;2022-10-16T08:35:27;1.75;;;0.70;;
41739;SDS011;27422;52.444;13.300;2022-10-16T08:37:52;1.48;;;0.70;;
41739;SDS011;27422;52.444;13.300;2022-10-16T08:40:24;3.35;;;0.70;;
41739;SDS011;27422;52.444;13.300;2022-10-16T08:46:07;3.50;;;0.60;;
41739;SDS011;27422;52.444;13.300;2022-10-16T08:48:45;1.47;;;0.70;;
41739;SDS011;27422;52.444;13.300;2022-10-16T08:51:20;2.17;;;0.90;;
41739;SDS011;27422;52.444;13.300;2022-10-16T08:53:52;2.13;;;0.80;;
41739;SDS011;27422;52.444;13.300;2022-10-16T08:56:19;1.55;;;0.60;;
41739;SDS011;27422;52.444;13.300;2022-10-16T08:58:46;2.63;;;0.80;;
41739;SDS011;27422;52.444;13.300;2022-10-16T09:01:13;2.42;;;0.82;;
41739;SDS011;27422;52.444;13.300;2022-10-16T09:16:48;2.13;;;0.70;;
41739;SDS011;27422;52.444;13.300;2022-10-16T09:19:40;1.30;;;0.47;;
41739;SDS011;27422;52.444;13.300;2022-10-16T09:22:14;1.60;;;0.63;;
41739;SDS011;27422;52.444;13.300;2022-10-16T09:24:40;2.05;;;0.50;;
41739;SDS011;27422;52.444;13.300;2022-10-16T09:27:15;1.35;;;0.60;;
41739;SDS011;27422;52.444;13.300;2022-10-16T09:29:41;1.00;;;0.50;;
41739;SDS011;27422;52.444;13.300;2022-10-16T09:32:27;0.73;;;0.40;;
41739;SDS011;27422;52.444;13.300;2022-10-16T09:34:52;1.10;;;0.50;;
41739;SDS011;27422;52.444;13.300;2022-10-16T09:37:21;1.52;;;0.70;;
41739;SDS011;27422;52.444;13.300;2022-10-16T09:39:51;1.77;;;0.70;;
41739;SDS011;27422;52.444;13.300;2022-10-16T09:42:18;1.38;;;0.50;;
41739;SDS011;27422;52.444;13.300;2022-10-16T09:44:51;1.73;;;0.70;;
41739;SDS011;27422;52.444;13.300;2022-10-16T09:47:20;1.90;;;0.70;;
41739;SDS011;27422;52.444;13.300;2022-10-16T09:52:49;1.83;;;0.50;;
41739;SDS011;27422;52.444;13.300;2022-10-16T09:55:15;1.25;;;0.60;;
41739;SDS011;27422;52.444;13.300;2022-10-16T09:57:49;1.63;;;0.70;;
41739;SDS011;27422;52.444;13.300;2022-10-16T10:00:20;1.92;;;0.68;;
41739;SDS011;27422;52.444;13.300;2022-10-16T10:02:46;1.20;;;0.60;;
41739;SDS011;27422;52.444;13.300;2022-10-16T10:07:53;1.52;;;0.57;;
41739;SDS011;27422;52.444;13.300;2022-10-16T10:12:48;1.67;;;0.60;;
41739;SDS011;27422;52.444;13.300;2022-10-16T10:15:14;1.52;;;0.52;;
41739;SDS011;27422;52.444;13.300;2022-10-16T10:17:47;1.27;;;0.50;;
41739;SDS011;27422;52.444;13.300;2022-10-16T10:22:55;1.23;;;0.60;;
41739;SDS011;27422;52.444;13.300;2022-10-16T10:25:24;1.20;;;0.60;;
41739;SDS011;27422;52.444;13.300;2022-10-16T10:35:56;1.10;;;0.50;;
41739;SDS011;27422;52.444;13.300;2022-10-16T10:49:30;1.08;;;0.50;;
41739;SDS011;27422;52.444;13.300;2022-10-16T10:57:39;1.02;;;0.40;;
41739;SDS011;27422;52.444;13.300;2022-10-16T11:00:37;0.80;;;0.40;;
41739;SDS011;27422;52.444;13.300;2022-10-16T11:03:12;1.25;;;0.50;;
41739;SDS011;27422;52.444;13.300;2022-10-16T11:05:51;0.70;;;0.40;;
41739;SDS011;27422;52.444;13.300;2022-10-16T11:08:19;1.05;;;0.40;;
41739;SDS011;27422;52.444;13.300;2022-10-16T11:10:52;0.80;;;0.30;;
41739;SDS011;27422;52.444;13.300;2022-10-16T11:15:47;0.85;;;0.40;;
41739;SDS011;27422;52.444;13.300;2022-10-16T11:18:16;1.13;;;0.50;;
41739;SDS011;27422;52.444;13.300;2022-10-16T11:20:50;0.57;;;0.30;;
41739;SDS011;27422;52.444;13.300;2022-10-16T11:23:21;1.23;;;0.50;;
41739;SDS011;27422;52.444;13.300;2022-10-16T11:25:48;1.52;;;0.55;;
41739;SDS011;27422;52.444;13.300;2022-10-16T11:31:05;1.05;;;0.40;;
41739;SDS011;27422;52.444;13.300;2022-10-16T11:33:38;1.25;;;0.30;;
41739;SDS011;27422;52.444;13.300;2022-10-16T11:38:55;1.20;;;0.45;;
41739;SDS011;27422;52.444;13.300;2022-10-16T11:44:09;1.50;;;0.60;;
41739;SDS011;27422;52.444;13.300;2022-10-16T11:46:40;0.88;;;0.30;;
41739;SDS011;27422;52.444;13.300;2022-10-16T11:49:15;1.02;;;0.30;;
41739;SDS011;27422;52.444;13.300;2022-10-16T11:56:50;0.73;;;0.20;;
41739;SDS011;27422;52.444;13.300;2022-10-16T12:07:35;0.80;;;0.30;;
41739;SDS011;27422;52.444;13.300;2022-10-16T12:12:47;0.95;;;0.30;;
41739;SDS011;27422;52.444;13.300;2022-10-16T12:15:21;2.50;;;0.40;;
41739;SDS011;27422;52.444;13.300;2022-10-16T12:17:50;1.00;;;0.30;;
41739;SDS011;27422;52.444;13.300;2022-10-16T12:22:52;0.70;;;0.30;;
41739;SDS011;27422;52.444;13.300;2022-10-16T12:25:24;1.20;;;0.30;;
41739;SDS011;27422;52.444;13.300;2022-10-16T12:28:38;0.73;;;0.30;;
41739;SDS011;27422;52.444;13.300;2022-10-16T12:30:55;0.52;;;0.30;;
41739;SDS011;27422;52.444;13.300;2022-10-16T12:33:23;0.80;;;0.30;;
41739;SDS011;27422;52.444;13.300;2022-10-16T12:35:50;0.40;;;0.20;;
41739;SDS011;27422;52.444;13.300;2022-10-16T12:38:20;0.95;;;0.30;;
41739;SDS011;27422;52.444;13.300;2022-10-16T12:41:01;1.10;;;0.25;;
41739;SDS011;27422;52.444;13.300;2022-10-16T12:48:36;1.40;;;0.40;;
41739;SDS011;27422;52.444;13.300;2022-10-16T12:54:11;0.95;;;0.20;;
41739;SDS011;27422;52.444;13.300;2022-10-16T12:56:48;0.80;;;0.30;;
41739;SDS011;27422;52.444;13.300;2022-10-16T13:07:56;0.77;;;0.20;;
41739;SDS011;27422;52.444;13.300;2022-10-16T13:21:20;0.43;;;0.20;;
41739;SDS011;27422;52.444;13.300;2022-10-16T13:29:19;0.45;;;0.30;;
41739;SDS011;27422;52.444;13.300;2022-10-16T13:31:45;0.63;;;0.30;;
41739;SDS011;27422;52.444;13.300;2022-10-16T13:34:12;1.77;;;0.60;;
41739;SDS011;27422;52.444;13.300;2022-10-16T13:36:47;1.00;;;0.47;;
41739;SDS011;27422;52.444;13.300;2022-10-16T13:39:27;4.80;;;0.70;;
41739;SDS011;27422;52.444;13.300;2022-10-16T13:44:25;1.08;;;0.57;;
41739;SDS011;27422;52.444;13.300;2022-10-16T13:46:58;1.35;;;0.50;;
41739;SDS011;27422;52.444;13.300;2022-10-16T13:49:24;1.75;;;0.30;;
41739;SDS011;27422;52.444;13.300;2022-10-16T13:51:56;1.23;;;0.40;;
41739;SDS011;27422;52.444;13.300;2022-10-16T13:54:22;0.85;;;0.30;;
41739;SDS011;27422;52.444;13.300;2022-10-16T13:56:48;4.50;;;0.30;;
41739;SDS011;27422;52.444;13.300;2022-10-16T13:59:27;0.80;;;0.30;;
41739;SDS011;27422;52.444;13.300;2022-10-16T14:01:58;1.20;;;0.38;;
41739;SDS011;27422;52.444;13.300;2022-10-16T14:04:24;0.98;;;0.40;;
41739;SDS011;27422;52.444;13.300;2022-10-16T14:06:56;0.50;;;0.22;;
41739;SDS011;27422;52.444;13.300;2022-10-16T14:09:28;0.98;;;0.40;;
41739;SDS011;27422;52.444;13.300;2022-10-16T14:11:59;0.60;;;0.30;;
41739;SDS011;27422;52.444;13.300;2022-10-16T14:14:59;0.52;;;0.30;;
41739;SDS011;27422;52.444;13.300;2022-10-16T14:17:19;1.30;;;0.40;;
41739;SDS011;27422;52.444;13.300;2022-10-16T14:19:53;1.55;;;0.40;;
41739;SDS011;27422;52.444;13.300;2022-10-16T14:22:30;1.35;;;0.25;;
41739;SDS011;27422;52.444;13.300;2022-10-16T14:25:02;1.27;;;0.32;;
41739;SDS011;27422;52.444;13.300;2022-10-16T14:27:40;0.70;;;0.20;;
41739;SDS011;27422;52.444;13.300;2022-10-16T14:32:52;1.15;;;0.30;;
41739;SDS011;27422;52.444;13.300;2022-10-16T14:35:23;0.85;;;0.30;;
41739;SDS011;27422;52.444;13.300;2022-10-16T14:37:53;1.02;;;0.30;;
41739;SDS011;27422;52.444;13.300;2022-10-16T14:40:20;0.95;;;0.40;;
41739;SDS011;27422;52.444;13.300;2022-10-16T14:42:51;1.40;;;0.50;;
41739;SDS011;27422;52.444;13.300;2022-10-16T14:45:35;1.02;;;0.40;;
41739;SDS011;27422;52.444;13.300;2022-10-16T14:48:01;0.98;;;0.30;;
41739;SDS011;27422;52.444;13.300;2022-10-16T14:50:28;1.25;;;0.40;;
41739;SDS011;27422;52.444;13.300;2022-10-16T14:52:54;2.17;;;0.32;;
41739;SDS011;27422;52.444;13.300;2022-10-16T14:55:20;1.55;;;0.30;;
41739;SDS011;27422;52.444;13.300;2022-10-16T14:57:46;0.32;;;0.20;;
41739;SDS011;27422;52.444;13.300;2022-10-16T15:00:14;1.38;;;0.30;;
41739;SDS011;27422;52.444;13.300;2022-10-16T15:02:41;0.55;;;0.28;;
41739;SDS011;27422;52.444;13.300;2022-10-16T15:05:40;1.35;;;0.32;;
41739;SDS011;27422;52.444;13.300;2022-10-16T15:07:59;0.82;;;0.30;;
41739;SDS011;27422;52.444;13.300;2022-10-16T15:10:26;0.75;;;0.30;;
41739;SDS011;27422;52.444;13.300;2022-10-16T15:12:52;0.52;;;0.22;;
41739;SDS011;27422;52.444;13.300;2022-10-16T15:15:25;0.90;;;0.22;;
41739;SDS011;27422;52.444;13.300;2022-10-16T15:17:54;1.00;;;0.30;;
41739;SDS011;27422;52.444;13.300;2022-10-16T15:20:43;1.27;;;0.50;;
41739;SDS011;27422;52.444;13.300;2022-10-16T15:23:13;1.50;;;0.57;;
41739;SDS011;27422;52.444;13.300;2022-10-16T15:25:44;2.17;;;0.60;;
41739;SDS011;27422;52.444;13.300;2022-10-16T15:28:10;2.10;;;0.68;;
41739;SDS011;27422;52.444;13.300;2022-10-16T15:30:36;1.00;;;0.43;;
41739;SDS011;27422;52.444;13.300;2022-10-16T15:33:03;1.35;;;0.60;;
41739;SDS011;27422;52.444;13.300;2022-10-16T15:35:28;4.60;;;0.68;;
41739;SDS011;27422;52.444;13.300;2022-10-16T15:37:54;1.63;;;0.80;;
41739;SDS011;27422;52.444;13.300;2022-10-16T15:40:20;4.10;;;2.17;;
41739;SDS011;27422;52.444;13.300;2022-10-16T15:42:49;3.97;;;1.67;;
41739;SDS011;27422;52.444;13.300;2022-10-16T15:45:15;1.90;;;0.90;;
41739;SDS011;27422;52.444;13.300;2022-10-16T15:47:43;3.20;;;1.40;;
41739;SDS011;27422;52.444;13.300;2022-10-16T15:50:10;2.70;;;1.30;;
41739;SDS011;27422;52.444;13.300;2022-10-16T15:52:39;2.70;;;1.00;;
41739;SDS011;27422;52.444;13.300;2022-10-16T15:55:06;2.15;;;0.85;;
41739;SDS011;27422;52.444;13.300;2022-10-16T15:57:36;1.50;;;0.70;;
41739;SDS011;27422;52.444;13.300;2022-10-16T16:00:04;2.08;;;0.90;;
41739;SDS011;27422;52.444;13.300;2022-10-16T16:02:31;2.22;;;1.05;;
41739;SDS011;27422;52.444;13.300;2022-10-16T16:04:56;3.97;;;1.88;;
41739;SDS011;27422;52.444;13.300;2022-10-16T16:07:22;3.25;;;1.58;;
41739;SDS011;27422;52.444;13.300;2022-10-16T16:10:28;3.38;;;1.83;;
41739;SDS011;27422;52.444;13.300;2022-10-16T16:12:53;4.55;;;2.22;;
41739;SDS011;27422;52.444;13.300;2022-10-16T16:15:19;3.60;;;2.03;;
41739;SDS011;27422;52.444;13.300;2022-10-16T16:17:45;3.45;;;1.92;;
41739;SDS011;27422;52.444;13.300;2022-10-16T16:20:11;3.30;;;1.80;;
41739;SDS011;27422;52.444;13.300;2022-10-16T16:22:36;4.13;;;2.00;;
41739;SDS011;27422;52.444;13.300;2022-10-16T16:25:02;4.03;;;1.90;;
41739;SDS011;27422;52.444;13.300;2022-10-16T16:27:27;3.83;;;1.75;;
41739;SDS011;27422;52.444;13.300;2022-10-16T16:29:54;3.03;;;1.50;;
41739;SDS011;27422;52.444;13.300;2022-10-16T16:32:20;2.80;;;1.45;;
41739;SDS011;27422;52.444;13.300;2022-10-16T16:34:46;3.05;;;1.20;;
41739;SDS011;27422;52.444;13.300;2022-10-16T16:37:14;3.38;;;1.33;;
41739;SDS011;27422;52.444;13.300;2022-10-16T16:39:40;2.78;;;1.10;;
41739;SDS011;27422;52.444;13.300;2022-10-16T16:42:05;2.83;;;1.33;;
41739;SDS011;27422;52.444;13.300;2022-10-16T16:44:32;3.58;;;1.52;;
41739;SDS011;27422;52.444;13.300;2022-10-16T16:46:58;2.83;;;1.30;;
41739;SDS011;27422;52.444;13.300;2022-10-16T16:49:23;3.20;;;1.60;;
41739;SDS011;27422;52.444;13.300;2022-10-16T16:51:49;4.43;;;1.80;;
41739;SDS011;27422;52.444;13.300;2022-10-16T16:54:14;3.45;;;1.65;;
41739;SDS011;27422;52.444;13.300;2022-10-16T16:56:40;3.90;;;1.20;;
41739;SDS011;27422;52.444;13.300;2022-10-16T16:59:13;3.83;;;1.42;;
41739;SDS011;27422;52.444;13.300;2022-10-16T17:01:40;3.80;;;1.60;;